Iona Mcallister — WDD4840 — position and weather

sailwx.info

Track history (hours):
 
Tides and Currents Weather Stations Pressure Air Temp Water Temp Dewpoint Dewpoint Depression Visibility Wind Speed Wind Dir Waves Ship Positions

Iona Mcallister

Owner: McAllister Towing & Transportation Co. Inc., Staten Island, NY. More information available from US FCC via Universal Licensing System and Coast Guard Vessel Documentation Center.

Last reported at 2018-Jul-21 23:12 UTC. Time now 2018-Jul-22 03:05 UTC.
Position N 41°44' W 071°22'.

Length 36 m; draft 5 m.

Type: Towing. MMSI: 367149890.

Date/timePositionNaut miles runAvg speedWind from/ knotsBaromVisibWave heightAir tempDewpointWater temp
2018-Jul-21 23:12N 41°44' W 071°22'2 8.9
2018-Jul-21 22:55N 41°42' W 071°20'8 0.6
2018-Jul-21 09:13N 41°35' W 071°24'1 3.5
2018-Jul-21 08:47N 41°37' W 071°24'2 5.5
2018-Jul-21 08:30N 41°38' W 071°22'3 4.8
2018-Jul-21 07:58N 41°40' W 071°22'2 5.2
2018-Jul-21 07:29N 41°42' W 071°20'2 5.0
2018-Jul-21 07:01N 41°44' W 071°22'3 0.2
2018-Jul-20 18:35N 41°47' W 071°22'0 0.0
2018-Jul-19 09:28N 41°47' W 071°22'0 0.0
2018-Jul-19 09:00N 41°47' W 071°22'1 1.5
2018-Jul-19 08:26N 41°46' W 071°22'1 1.7
2018-Jul-19 07:55N 41°47' W 071°22'0 0.0
2018-Jul-19 07:09N 41°47' W 071°22'0 0.0
2018-Jul-19 06:58N 41°47' W 071°22'0 0.1
2018-Jul-19 06:30N 41°47' W 071°22'0 0.0
2018-Jul-18 21:44N 41°47' W 071°22'10 0.4
2018-Jul-17 19:17N 41°37' W 071°24'3 8.0
2018-Jul-17 18:57N 41°39' W 071°22'4 8.6
2018-Jul-17 18:30N 41°43' W 071°20'5 7.6
2018-Jul-17 17:54N 41°47' W 071°22'0 0.9
2018-Jul-17 17:24N 41°47' W 071°22'0 0.7
2018-Jul-17 16:49N 41°47' W 071°22'0 0.0
2018-Jul-17 16:25N 41°47' W 071°22'0 0.0
2018-Jul-17 15:59N 41°47' W 071°22'1 0.1
2018-Jul-17 09:35N 41°48' W 071°23'0 1.3
2018-Jul-17 09:28N 41°47' W 071°23'1 0.4
2018-Jul-17 08:12N 41°47' W 071°22'0 0.3
2018-Jul-17 07:57N 41°47' W 071°22'0 0.1
2018-Jul-17 07:25N 41°47' W 071°22'1 2.1
2018-Jul-17 07:00N 41°46' W 071°23'1 0.1
2018-Jul-16 14:50N 41°47' W 071°23'  
2018-Jul-14 10:12N 41°47' W 071°22'0 0.3
2018-Jul-14 09:49N 41°47' W 071°22'0 0.0
2018-Jul-13 22:00N 41°47' W 071°22'1 0.0
2018-Jul-12 23:16N 41°46' W 071°22'11 0.8
2018-Jul-12 09:17N 41°35' W 071°24'0 0.0
2018-Jul-12 08:57N 41°35' W 071°24'0 0.0
2018-Jul-12 08:27N 41°35' W 071°24'  
Track history (hours):
 
Tides and Currents Weather Stations Pressure Air Temp Water Temp Dewpoint Dewpoint Depression Visibility Wind Speed Wind Dir Waves Ship Positions

Iona Mcallister

Owner: McAllister Towing & Transportation Co. Inc., Staten Island, NY. More information available from US FCC via Universal Licensing System and Coast Guard Vessel Documentation Center.

Last reported at 2018-Jul-21 23:12 UTC. Time now 2018-Jul-22 03:05 UTC.
Position N 41°44' W 071°22'.

Length 36 m; draft 5 m.

Type: Towing. MMSI: 367149890.

Date/timePositionNaut miles runAvg speedWind from/ knotsBaromVisibWave heightAir tempDewpointWater temp
2018-Jul-21 23:12N 41°44' W 071°22'2 8.9
2018-Jul-21 22:55N 41°42' W 071°20'8 0.6
2018-Jul-21 09:13N 41°35' W 071°24'1 3.5
2018-Jul-21 08:47N 41°37' W 071°24'2 5.5
2018-Jul-21 08:30N 41°38' W 071°22'3 4.8
2018-Jul-21 07:58N 41°40' W 071°22'2 5.2
2018-Jul-21 07:29N 41°42' W 071°20'2 5.0
2018-Jul-21 07:01N 41°44' W 071°22'3 0.2
2018-Jul-20 18:35N 41°47' W 071°22'0 0.0
2018-Jul-19 09:28N 41°47' W 071°22'0 0.0
2018-Jul-19 09:00N 41°47' W 071°22'1 1.5
2018-Jul-19 08:26N 41°46' W 071°22'1 1.7
2018-Jul-19 07:55N 41°47' W 071°22'0 0.0
2018-Jul-19 07:09N 41°47' W 071°22'0 0.0
2018-Jul-19 06:58N 41°47' W 071°22'0 0.1
2018-Jul-19 06:30N 41°47' W 071°22'0 0.0
2018-Jul-18 21:44N 41°47' W 071°22'10 0.4
2018-Jul-17 19:17N 41°37' W 071°24'3 8.0
2018-Jul-17 18:57N 41°39' W 071°22'4 8.6
2018-Jul-17 18:30N 41°43' W 071°20'5 7.6
2018-Jul-17 17:54N 41°47' W 071°22'0 0.9
2018-Jul-17 17:24N 41°47' W 071°22'0 0.7
2018-Jul-17 16:49N 41°47' W 071°22'0 0.0
2018-Jul-17 16:25N 41°47' W 071°22'0 0.0
2018-Jul-17 15:59N 41°47' W 071°22'1 0.1
2018-Jul-17 09:35N 41°48' W 071°23'0 1.3
2018-Jul-17 09:28N 41°47' W 071°23'1 0.4
2018-Jul-17 08:12N 41°47' W 071°22'0 0.3
2018-Jul-17 07:57N 41°47' W 071°22'0 0.1
2018-Jul-17 07:25N 41°47' W 071°22'1 2.1
2018-Jul-17 07:00N 41°46' W 071°23'1 0.1
2018-Jul-16 14:50N 41°47' W 071°23'  
2018-Jul-14 10:12N 41°47' W 071°22'0 0.3
2018-Jul-14 09:49N 41°47' W 071°22'0 0.0
2018-Jul-13 22:00N 41°47' W 071°22'1 0.0
2018-Jul-12 23:16N 41°46' W 071°22'11 0.8
2018-Jul-12 09:17N 41°35' W 071°24'0 0.0
2018-Jul-12 08:57N 41°35' W 071°24'0 0.0
2018-Jul-12 08:27N 41°35' W 071°24'  

Dump ship's entire track history